createdAt,value
2019-04-10T00:03:48.305Z,100554.32
2019-04-10T00:08:54.723Z,100542.28
2019-04-10T00:14:00.805Z,100545.37
2019-04-10T00:19:07.048Z,100544.67
2019-04-10T00:24:13.557Z,100535.75
2019-04-10T00:29:20.314Z,100539.95
2019-04-10T00:34:26.434Z,100538.91
2019-04-10T00:39:32.798Z,100522.41
2019-04-10T00:44:39.664Z,100480.36
2019-04-10T00:49:46.152Z,100472.23
2019-04-10T00:54:52.158Z,100452.65
2019-04-10T00:59:58.873Z,100435.75
2019-04-10T01:05:05.126Z,100433.43
2019-04-10T01:10:12.213Z,100437.52
2019-04-10T01:15:19.068Z,100424.28
2019-04-10T01:20:25.824Z,100441.86
2019-04-10T01:25:32.552Z,100460.49
2019-04-10T01:30:38.563Z,100484.84
2019-04-10T01:35:46.658Z,100495.25
2019-04-10T01:40:53.139Z,100496.58
2019-04-10T01:46:00.309Z,100527.77
2019-04-10T01:51:06.727Z,100551.41
2019-04-10T01:56:22.052Z,100550.95
2019-04-10T02:01:22.307Z,100555.73
2019-04-10T02:06:29.381Z,100573.25
2019-04-10T02:11:37.611Z,100583.98
2019-04-10T02:16:43.501Z,100594.23
2019-04-10T02:21:49.756Z,100620.01
2019-04-10T02:26:56.135Z,100650.49
2019-04-10T02:32:02.268Z,100672.05
2019-04-10T02:37:08.747Z,100675.56
2019-04-10T02:42:16.076Z,100708.59
2019-04-10T02:47:23.082Z,100748.52
2019-04-10T02:52:30.695Z,100754.49
2019-04-10T02:57:37.465Z,100742.64
2019-04-10T03:02:45.334Z,100755.09
2019-04-10T03:07:52.637Z,100758.44
2019-04-10T03:12:59.317Z,100776.03
2019-04-10T03:18:07.064Z,100768.88
2019-04-10T03:23:13.519Z,100780.13
2019-04-10T03:28:19.808Z,100756.78
2019-04-10T03:33:30.512Z,100752.24
2019-04-10T03:38:47.348Z,100761.70
2019-04-10T03:43:43.735Z,100773.55
2019-04-10T03:48:49.543Z,100794.04
2019-04-10T03:53:56.472Z,100819.69
2019-04-10T03:59:02.324Z,100856.38
2019-04-10T04:04:09.614Z,100879.97
2019-04-10T04:09:16.216Z,100885.80
2019-04-10T04:14:22.414Z,100904.05
2019-04-10T04:19:28.567Z,100922.33
2019-04-10T04:24:35.795Z,100939.62
2019-04-10T04:29:41.498Z,100959.77
2019-04-10T04:34:47.514Z,100989.58
2019-04-10T04:39:54.316Z,101003.29
2019-04-10T04:45:00.793Z,101027.88
2019-04-10T04:50:07.702Z,101043.81
2019-04-10T04:55:14.217Z,101049.73
2019-04-10T05:00:20.248Z,101067.98
2019-04-10T05:05:27.139Z,101082.84
2019-04-10T05:10:33.529Z,101092.27
2019-04-10T05:15:39.491Z,101105.09
2019-04-10T05:20:49.958Z,101117.38
2019-04-10T05:25:53.863Z,101122.50
2019-04-10T05:31:00.916Z,101116.69
2019-04-10T05:36:07.011Z,101127.00
2019-04-10T05:41:13.376Z,101144.11
2019-04-10T05:46:19.380Z,101142.58
2019-04-10T05:51:25.425Z,101147.64
2019-04-10T05:56:31.335Z,101150.55
2019-04-10T06:01:40.212Z,101163.56
2019-04-10T06:06:44.962Z,101175.54
2019-04-10T06:11:50.770Z,101187.89
2019-04-10T06:16:59.396Z,101188.27
2019-04-10T06:22:05.334Z,101195.47
2019-04-10T06:27:12.291Z,101204.48
2019-04-10T06:32:19.282Z,101212.77
2019-04-10T06:37:26.286Z,101230.90
2019-04-10T06:42:44.845Z,101252.52
2019-04-10T06:47:40.416Z,101250.23
2019-04-10T06:52:47.162Z,101263.94
2019-04-10T06:57:57.204Z,101270.23
2019-04-10T07:03:01.052Z,101278.73
2019-04-10T07:08:16.038Z,101291.98
2019-04-10T07:13:17.542Z,101301.91
2019-04-10T07:18:24.238Z,101307.39
2019-04-10T07:23:31.997Z,101312.53
2019-04-10T07:28:41.670Z,101319.38
2019-04-10T07:33:50.132Z,101314.81
2019-04-10T07:38:55.711Z,101319.70
2019-04-10T07:44:01.646Z,101324.61
2019-04-10T07:49:08.554Z,101337.37
2019-04-10T07:54:18.315Z,101335.10
2019-04-10T07:59:21.767Z,101346.68
2019-04-10T08:04:27.658Z,101359.45
2019-04-10T08:09:33.541Z,101364.30
2019-04-10T08:14:39.921Z,101382.02
2019-04-10T08:19:46.180Z,101386.33
2019-04-10T08:24:51.970Z,101399.56
2019-04-10T08:29:59.013Z,101395.84
2019-04-10T08:35:06.978Z,101400.36
2019-04-10T08:40:13.572Z,101408.70
2019-04-10T08:45:20.903Z,101410.80
2019-04-10T08:50:28.015Z,101422.89
2019-04-10T08:55:34.980Z,101414.52
2019-04-10T09:00:40.944Z,101425.47
2019-04-10T09:05:46.989Z,101443.63
2019-04-10T09:10:53.098Z,101433.13
2019-04-10T09:15:58.890Z,101438.47
2019-04-10T09:21:05.020Z,101443.34
2019-04-10T09:26:11.398Z,101448.78
2019-04-10T09:31:19.715Z,101447.05
2019-04-10T09:36:26.982Z,101444.77
2019-04-10T09:41:34.109Z,101445.77
2019-04-10T09:46:40.810Z,101451.27
2019-04-10T09:51:48.181Z,101447.77
2019-04-10T09:56:54.868Z,101440.75
2019-04-10T10:02:00.912Z,101446.02
2019-04-10T10:07:08.252Z,101450.47
2019-04-10T10:12:14.094Z,101453.52
2019-04-10T10:17:20.312Z,101439.23
2019-04-10T10:22:27.293Z,101445.25
2019-04-10T10:27:34.263Z,101441.08
2019-04-10T10:32:42.121Z,101451.86
2019-04-10T10:37:48.502Z,101449.58
2019-04-10T10:42:54.478Z,101447.17
2019-04-10T10:48:01.285Z,101451.20
2019-04-10T10:53:08.103Z,101455.13
2019-04-10T10:58:14.018Z,101446.09
2019-04-10T11:03:20.414Z,101440.59
2019-04-10T11:08:26.959Z,101440.59
2019-04-10T11:13:33.215Z,101435.07
2019-04-10T11:18:40.380Z,101439.08
2019-04-10T11:23:46.867Z,101437.16
2019-04-10T11:28:53.096Z,101441.24
2019-04-10T11:34:00.099Z,101443.90
2019-04-10T11:39:17.093Z,101440.34
2019-04-10T11:44:19.213Z,101435.69
2019-04-10T11:49:23.850Z,101438.47
2019-04-10T11:54:32.247Z,101441.55
2019-04-10T11:59:38.967Z,101448.39
2019-04-10T12:04:53.001Z,101442.60
2019-04-10T12:15:02.037Z,101435.58
2019-04-10T12:20:11.117Z,101439.27
2019-04-10T12:25:17.116Z,101434.52
2019-04-10T12:30:23.530Z,101443.87
2019-04-10T12:35:29.810Z,101431.89
2019-04-10T12:40:38.690Z,101436.69
2019-04-10T12:45:44.405Z,101423.75
2019-04-10T12:50:50.460Z,101423.69
2019-04-10T12:55:56.474Z,101421.91
2019-04-10T13:01:03.056Z,101422.09
2019-04-10T13:06:09.546Z,101432.64
2019-04-10T13:11:16.261Z,101434.41
2019-04-10T13:16:22.202Z,101426.41
2019-04-10T13:21:28.510Z,101423.59
2019-04-10T13:26:34.585Z,101426.70
2019-04-10T13:31:40.645Z,101419.06
2019-04-10T13:36:46.614Z,101411.33
2019-04-10T13:41:52.608Z,101408.72
2019-04-10T13:46:59.445Z,101415.31
2019-04-10T13:52:05.811Z,101415.95
2019-04-10T13:57:11.917Z,101410.93
2019-04-10T14:02:32.250Z,101415.11
2019-04-10T14:07:40.156Z,101414.25
2019-04-10T14:12:47.146Z,101420.36
2019-04-10T14:17:55.766Z,101425.41
2019-04-10T14:23:15.747Z,101430.80
2019-04-10T14:28:23.173Z,101432.13
2019-04-10T14:33:30.400Z,101428.27
2019-04-10T14:38:36.452Z,101436.08
2019-04-10T14:43:43.818Z,101439.12
2019-04-10T14:48:50.180Z,101435.98
2019-04-10T14:53:56.054Z,101441.14
2019-04-10T14:59:02.132Z,101436.66
2019-04-10T15:04:08.829Z,101435.41
2019-04-10T15:09:25.314Z,101444.00
2019-04-10T15:14:27.818Z,101445.41
2019-04-10T15:19:34.347Z,101446.64
2019-04-10T15:24:40.359Z,101448.86
2019-04-10T15:29:47.206Z,101449.48
2019-04-10T15:34:53.685Z,101450.90
2019-04-10T15:40:13.487Z,101454.66
2019-04-10T15:45:07.345Z,101452.80
2019-04-10T15:50:13.859Z,101455.39
2019-04-10T15:55:19.818Z,101464.20
2019-04-10T16:00:25.813Z,101461.04
2019-04-10T16:05:33.373Z,101449.91
2019-04-10T16:10:41.347Z,101467.29
2019-04-10T16:15:50.477Z,101462.80
2019-04-10T16:20:57.263Z,101472.91
2019-04-10T16:26:04.846Z,101474.09
2019-04-10T16:31:11.003Z,101485.05
2019-04-10T16:36:17.199Z,101479.78
2019-04-10T16:41:26.327Z,101493.18
2019-04-10T16:46:31.990Z,101487.06
2019-04-10T16:51:38.531Z,101483.77
2019-04-10T16:56:45.617Z,101478.25
2019-04-10T17:01:53.209Z,101489.67
2019-04-10T17:06:59.175Z,101489.67
2019-04-10T17:12:06.579Z,101496.88
2019-04-10T17:17:13.013Z,101488.72
2019-04-10T17:22:30.760Z,101497.45
2019-04-10T17:27:27.526Z,101503.43
2019-04-10T17:32:36.317Z,101507.10
2019-04-10T17:37:42.739Z,101518.86
2019-04-10T17:42:48.655Z,101526.00
2019-04-10T17:47:55.258Z,101527.05
2019-04-10T17:53:02.818Z,101527.80
2019-04-10T17:58:09.457Z,101536.59
2019-04-10T18:03:18.365Z,101540.22
2019-04-10T18:08:26.411Z,101543.93
2019-04-10T18:13:31.141Z,101548.19
2019-04-10T18:18:37.981Z,101549.73
2019-04-10T18:23:43.997Z,101556.81
2019-04-10T18:28:52.024Z,101557.41
2019-04-10T18:34:00.739Z,101566.70
2019-04-10T18:39:12.486Z,101563.80
2019-04-10T18:44:17.385Z,101554.71
2019-04-10T18:49:23.246Z,101562.67
2019-04-10T18:54:40.211Z,101558.30
2019-04-10T18:59:47.647Z,101554.78
2019-04-10T19:04:55.287Z,101546.97
2019-04-10T19:10:02.179Z,101545.07
2019-04-10T19:15:09.209Z,101535.34
2019-04-10T19:20:17.986Z,101527.84
2019-04-10T19:25:24.898Z,101519.72
2019-04-10T19:30:45.685Z,101511.66
2019-04-10T19:35:51.637Z,101488.45
2019-04-10T19:40:58.434Z,101460.00
2019-04-10T19:46:04.400Z,101433.23
2019-04-10T19:51:10.374Z,101404.05
2019-04-10T19:56:16.313Z,101392.53
2019-04-10T20:01:24.514Z,101363.94
2019-04-10T20:06:30.170Z,101336.67
2019-04-10T20:11:40.316Z,101316.88
2019-04-10T20:16:44.031Z,101311.53
2019-04-10T20:21:50.369Z,101291.76
2019-04-10T20:26:56.479Z,101256.12
2019-04-10T20:32:02.721Z,101232.67
2019-04-10T20:37:11.310Z,101225.95
2019-04-10T20:42:18.215Z,101216.66
2019-04-10T20:47:24.677Z,101179.34
2019-04-10T20:52:30.775Z,101157.69
2019-04-10T20:57:37.486Z,101145.94
2019-04-10T21:02:44.562Z,101123.14
2019-04-10T21:07:50.629Z,101128.59
2019-04-10T21:12:58.418Z,101122.81
2019-04-10T21:18:05.102Z,101112.88
2019-04-10T21:23:11.072Z,101143.48
2019-04-10T21:28:16.878Z,101130.20
2019-04-10T21:33:37.310Z,101134.80
2019-04-10T21:38:43.166Z,101135.36
2019-04-10T21:43:50.876Z,101116.69
2019-04-10T21:48:57.357Z,101130.98
2019-04-10T21:54:04.361Z,101120.73
2019-04-10T21:59:11.096Z,101125.38
2019-04-10T22:04:17.435Z,101116.77
2019-04-10T22:09:24.757Z,101103.21
2019-04-10T22:14:30.622Z,101093.50
2019-04-10T22:19:38.015Z,101102.85
2019-04-10T22:24:44.095Z,101083.84
2019-04-10T22:29:50.069Z,101087.97
2019-04-10T22:34:57.017Z,101076.20
2019-04-10T22:40:02.859Z,101052.45
2019-04-10T22:45:27.399Z,101044.04
2019-04-10T22:50:34.509Z,101030.79
2019-04-10T22:55:42.323Z,101007.90
2019-04-10T23:00:48.490Z,100983.42
2019-04-10T23:05:54.553Z,100987.24
2019-04-10T23:11:01.385Z,100987.45
2019-04-10T23:16:08.993Z,100968.82
2019-04-10T23:21:14.884Z,100955.42
2019-04-10T23:26:20.790Z,100929.71
2019-04-10T23:31:27.887Z,100892.05
2019-04-10T23:36:34.085Z,100849.58
2019-04-10T23:41:40.055Z,100828.14
2019-04-10T23:46:47.459Z,100845.19
2019-04-10T23:51:53.685Z,100832.07
2019-04-10T23:56:59.706Z,100807.13
